createdAt,value
2022-08-07T00:00:11.464Z,59.63
2022-08-07T00:01:43.026Z,59.71
2022-08-07T00:02:36.291Z,59.55
2022-08-07T00:03:12.394Z,59.07
2022-08-07T00:04:15.355Z,59.19
2022-08-07T00:05:11.381Z,59.40
2022-08-07T00:06:11.367Z,59.14
2022-08-07T00:07:11.237Z,59.55
2022-08-07T00:08:11.225Z,59.39
2022-08-07T00:09:17.099Z,59.19
2022-08-07T00:10:27.039Z,59.16
2022-08-07T00:11:12.195Z,59.44
2022-08-07T00:12:15.255Z,59.41
2022-08-07T00:13:23.657Z,59.89
2022-08-07T00:14:12.165Z,60.41
2022-08-07T00:15:11.288Z,59.43
2022-08-07T00:16:11.136Z,59.58
2022-08-07T00:17:12.107Z,59.85
2022-08-07T00:18:19.173Z,59.72
2022-08-07T00:19:21.504Z,59.91
2022-08-07T00:20:15.642Z,60.17
2022-08-07T00:21:56.352Z,60.29
2022-08-07T00:22:12.125Z,60.06
2022-08-07T00:23:12.146Z,60.20
2022-08-07T00:24:11.007Z,60.30
2022-08-07T00:25:16.681Z,60.18
2022-08-07T00:26:18.874Z,60.50
2022-08-07T00:27:11.968Z,60.31
2022-08-07T00:28:10.976Z,60.50
2022-08-07T00:29:11.024Z,60.20
2022-08-07T00:30:26.706Z,60.24
2022-08-07T00:31:12.702Z,60.38
2022-08-07T00:32:10.927Z,60.17
2022-08-07T00:33:10.989Z,60.22
2022-08-07T00:34:10.873Z,60.26
2022-08-07T00:35:11.037Z,61.07
2022-08-07T00:36:11.841Z,60.58
2022-08-07T00:37:11.889Z,60.36
2022-08-07T00:38:10.840Z,60.73
2022-08-07T00:39:16.339Z,60.53
2022-08-07T00:40:11.799Z,60.54
2022-08-07T00:41:14.634Z,60.47
2022-08-07T00:42:10.762Z,60.54
2022-08-07T00:43:58.650Z,60.56
2022-08-07T00:44:11.760Z,60.78
2022-08-07T00:45:10.918Z,60.76
2022-08-07T00:46:11.711Z,60.65
2022-08-07T00:47:15.907Z,60.90
2022-08-07T00:48:11.926Z,60.89
2022-08-07T00:49:10.779Z,60.81
2022-08-07T00:50:20.850Z,60.75
2022-08-07T00:51:11.658Z,60.90
2022-08-07T00:52:33.196Z,60.85
2022-08-07T00:53:10.632Z,60.87
2022-08-07T00:56:00.508Z,60.78
2022-08-07T00:56:30.365Z,60.79
2022-08-07T00:57:25.212Z,60.81
2022-08-07T00:58:22.871Z,60.88
2022-08-07T00:59:35.387Z,60.78
2022-08-07T01:00:23.822Z,60.89
2022-08-07T01:01:22.994Z,61.06
2022-08-07T01:02:29.321Z,61.07
2022-08-07T01:03:54.600Z,61.62
2022-08-07T01:04:24.944Z,60.91
2022-08-07T01:05:24.631Z,61.25
2022-08-07T01:06:22.959Z,62.03
2022-08-07T01:07:22.705Z,60.86
2022-08-07T01:08:22.849Z,60.82
2022-08-07T01:10:04.196Z,61.07
2022-08-07T01:10:23.671Z,61.12
2022-08-07T01:12:04.842Z,61.08
2022-08-07T01:12:29.825Z,61.14
2022-08-07T01:13:23.633Z,61.04
2022-08-07T01:14:28.534Z,60.92
2022-08-07T01:15:35.896Z,61.43
2022-08-07T01:16:30.255Z,60.96
2022-08-07T01:17:23.575Z,61.08
2022-08-07T01:18:22.677Z,61.12
2022-08-07T01:19:22.546Z,61.25
2022-08-07T01:20:43.625Z,61.22
2022-08-07T01:21:25.865Z,61.48
2022-08-07T01:22:29.162Z,61.33
2022-08-07T01:23:32.684Z,61.61
2022-08-07T01:24:23.475Z,61.87
2022-08-07T01:25:53.589Z,61.33
2022-08-07T01:26:23.456Z,61.17
2022-08-07T01:27:23.546Z,61.15
2022-08-07T01:28:23.420Z,61.15
2022-08-07T01:29:22.616Z,61.19
2022-08-07T01:30:22.396Z,61.62
2022-08-07T01:31:22.935Z,61.36
2022-08-07T01:32:23.490Z,61.27
2022-08-07T01:33:22.591Z,61.34
2022-08-07T01:34:24.033Z,61.66
2022-08-07T01:35:24.336Z,61.36
2022-08-07T01:36:22.437Z,61.28
2022-08-07T01:37:23.429Z,61.02
2022-08-07T01:38:24.941Z,61.15
2022-08-07T01:39:22.298Z,61.48
2022-08-07T01:40:22.367Z,62.09
2022-08-07T01:41:25.853Z,61.20
2022-08-07T01:42:38.729Z,61.51
2022-08-07T01:43:23.229Z,61.55
2022-08-07T01:44:23.411Z,61.37
2022-08-07T01:45:22.785Z,61.28
2022-08-07T01:46:23.210Z,61.05
2022-08-07T01:48:19.666Z,61.23
2022-08-07T01:48:30.177Z,61.17
2022-08-07T01:49:23.143Z,61.56
2022-08-07T01:50:22.788Z,61.32
2022-08-07T01:51:58.812Z,61.70
2022-08-07T01:52:23.120Z,61.42
2022-08-07T01:54:08.848Z,61.25
2022-08-07T01:54:32.847Z,61.50
2022-08-07T01:55:24.226Z,61.66
2022-08-07T01:56:22.097Z,61.31
2022-08-07T01:57:24.704Z,61.50
2022-08-07T01:58:27.265Z,61.39
2022-08-07T01:59:23.042Z,61.39
2022-08-07T02:00:29.020Z,61.86
2022-08-07T02:01:59.236Z,62.03
2022-08-07T02:02:32.759Z,61.66
2022-08-07T02:03:25.001Z,61.41
2022-08-07T02:04:22.041Z,61.36
2022-08-07T02:05:47.510Z,61.91
2022-08-07T02:06:31.615Z,61.86
2022-08-07T02:07:22.900Z,62.73
2022-08-07T02:08:23.871Z,61.89
2022-08-07T02:09:51.958Z,62.45
2022-08-07T02:10:23.984Z,61.69
2022-08-07T02:11:30.733Z,61.72
2022-08-07T02:12:29.367Z,61.96
2022-08-07T02:13:22.963Z,62.06
2022-08-07T02:14:36.178Z,61.66
2022-08-07T02:15:22.791Z,61.70
2022-08-07T02:16:28.753Z,61.69
2022-08-07T02:17:25.000Z,61.53
2022-08-07T02:18:22.743Z,62.23
2022-08-07T02:20:04.156Z,61.57
2022-08-07T02:20:23.330Z,61.52
2022-08-07T02:21:21.707Z,61.58
2022-08-07T02:22:21.850Z,61.72
2022-08-07T02:23:23.782Z,61.97
2022-08-07T02:24:21.775Z,61.90
2022-08-07T02:25:21.655Z,61.63
2022-08-07T02:26:32.989Z,61.50
2022-08-07T02:27:22.859Z,61.32
2022-08-07T02:28:24.453Z,61.44
2022-08-07T02:29:21.939Z,61.38
2022-08-07T02:30:21.700Z,61.73
2022-08-07T02:31:28.726Z,61.88
2022-08-07T02:32:23.524Z,61.46
2022-08-07T02:33:22.544Z,61.79
2022-08-07T02:34:23.832Z,61.89
2022-08-07T02:36:28.701Z,61.62
2022-08-07T02:36:30.526Z,62.28
2022-08-07T02:37:22.495Z,61.45
2022-08-07T02:38:22.705Z,61.73
2022-08-07T02:39:43.030Z,61.73
2022-08-07T02:40:30.823Z,61.51
2022-08-07T02:41:22.568Z,61.65
2022-08-07T02:42:22.416Z,62.05
2022-08-07T02:43:21.564Z,61.24
2022-08-07T02:44:21.407Z,61.39
2022-08-07T02:46:00.876Z,61.51
2022-08-07T02:46:22.485Z,61.32
2022-08-07T02:47:23.505Z,60.94
2022-08-07T02:48:21.418Z,61.13
2022-08-07T02:49:28.655Z,61.09
2022-08-07T02:50:22.338Z,60.84
2022-08-07T02:51:41.854Z,60.78
2022-08-07T02:52:22.286Z,61.11
2022-08-07T02:53:22.272Z,61.55
2022-08-07T02:54:22.256Z,60.72
2022-08-07T02:55:28.696Z,60.51
2022-08-07T02:56:22.432Z,60.62
2022-08-07T02:57:21.263Z,60.63
2022-08-07T02:58:21.600Z,60.86
2022-08-07T02:59:23.999Z,61.49
2022-08-07T03:00:22.178Z,60.70
2022-08-07T03:01:36.688Z,61.32
2022-08-07T03:02:22.169Z,60.51
2022-08-07T03:03:22.859Z,60.52
2022-08-07T03:04:21.135Z,60.42
2022-08-07T03:05:23.145Z,60.85
2022-08-07T03:06:26.158Z,60.60
2022-08-07T03:07:43.296Z,60.61
2022-08-07T03:08:26.969Z,60.05
2022-08-07T03:09:43.398Z,60.70
2022-08-07T03:10:23.444Z,60.42
2022-08-07T03:11:21.029Z,60.12
2022-08-07T03:12:22.463Z,59.93
2022-08-07T03:13:22.012Z,60.00
2022-08-07T03:14:22.481Z,60.59
2022-08-07T03:15:30.183Z,60.24
2022-08-07T03:16:27.674Z,59.95
2022-08-07T03:17:22.346Z,60.28
2022-08-07T03:18:20.931Z,60.54
2022-08-07T03:19:20.932Z,60.38
2022-08-07T03:20:20.991Z,60.28
2022-08-07T03:21:20.899Z,60.58
2022-08-07T03:22:21.010Z,60.66
2022-08-07T03:23:20.861Z,60.64
2022-08-07T03:24:27.197Z,60.29
2022-08-07T03:25:21.873Z,60.92
2022-08-07T03:26:23.693Z,60.34
2022-08-07T03:27:30.783Z,60.70
2022-08-07T03:28:37.353Z,61.21
2022-08-07T03:29:21.796Z,60.44
2022-08-07T03:31:43.325Z,60.11
2022-08-07T03:32:31.214Z,60.11
2022-08-07T03:33:32.277Z,60.10
2022-08-07T03:34:31.113Z,60.21
2022-08-07T03:35:43.748Z,60.59
2022-08-07T03:36:31.093Z,60.91
2022-08-07T03:37:32.646Z,61.00
2022-08-07T03:38:33.363Z,61.12
2022-08-07T03:39:45.930Z,60.60
2022-08-07T03:40:36.674Z,60.95
2022-08-07T03:41:42.560Z,60.87
2022-08-07T03:42:31.004Z,60.65
2022-08-07T03:43:32.398Z,60.83
2022-08-07T03:44:34.243Z,60.84
2022-08-07T03:45:31.398Z,60.59
2022-08-07T03:46:30.147Z,60.72
2022-08-07T03:47:47.949Z,60.78
2022-08-07T03:48:30.926Z,61.32
2022-08-07T03:49:30.062Z,60.97
2022-08-07T03:50:29.864Z,60.48
2022-08-07T03:51:30.889Z,60.44
2022-08-07T03:52:31.996Z,60.74
2022-08-07T03:54:00.723Z,60.79
2022-08-07T03:54:35.289Z,60.71
2022-08-07T03:55:52.852Z,60.95
2022-08-07T03:56:32.566Z,60.87
2022-08-07T03:58:35.293Z,60.97
2022-08-07T03:59:07.309Z,61.13
2022-08-07T03:59:32.937Z,61.01
2022-08-07T04:00:33.434Z,60.95
2022-08-07T04:01:29.783Z,61.01
2022-08-07T04:02:29.824Z,60.93
2022-08-07T04:03:29.696Z,60.91
2022-08-07T04:04:32.836Z,60.92
2022-08-07T04:05:40.591Z,60.60
2022-08-07T04:06:37.442Z,60.61
2022-08-07T04:07:41.619Z,61.13
2022-08-07T04:08:30.638Z,60.74
2022-08-07T04:09:45.318Z,61.15
2022-08-07T04:10:30.606Z,61.29
2022-08-07T04:12:26.431Z,61.17
2022-08-07T04:12:30.608Z,61.23
2022-08-07T04:13:29.667Z,61.08
2022-08-07T04:14:38.033Z,61.38
2022-08-07T04:15:30.547Z,61.06
2022-08-07T04:16:32.305Z,61.12
2022-08-07T04:18:11.238Z,61.38
2022-08-07T04:18:58.500Z,61.24
2022-08-07T04:19:50.927Z,61.68
2022-08-07T04:20:30.728Z,61.45
2022-08-07T04:21:31.881Z,61.04
2022-08-07T04:22:30.023Z,61.36
2022-08-07T04:23:44.004Z,60.89
2022-08-07T04:24:38.713Z,61.14
2022-08-07T04:25:30.398Z,60.93
2022-08-07T04:26:30.389Z,60.65
2022-08-07T04:27:36.029Z,60.86
2022-08-07T04:28:30.360Z,61.21
2022-08-07T04:29:49.051Z,61.27
2022-08-07T04:30:39.498Z,61.10
2022-08-07T04:32:02.125Z,61.32
2022-08-07T04:32:34.218Z,61.47
2022-08-07T04:33:29.299Z,62.29
2022-08-07T04:34:33.342Z,61.25
2022-08-07T04:35:35.498Z,61.21
2022-08-07T04:36:30.281Z,60.39
2022-08-07T04:37:29.291Z,60.53
2022-08-07T04:38:30.230Z,60.80
2022-08-07T04:39:35.881Z,60.70
2022-08-07T04:40:32.250Z,61.03
2022-08-07T04:41:29.264Z,61.31
2022-08-07T04:42:30.191Z,60.95
2022-08-07T04:44:12.888Z,61.18
2022-08-07T04:44:30.150Z,62.32
2022-08-07T04:45:57.917Z,60.95
2022-08-07T04:46:34.364Z,61.34
2022-08-07T04:48:10.235Z,61.67
2022-08-07T04:48:30.091Z,61.36
2022-08-07T04:49:29.266Z,61.04
2022-08-07T04:50:30.059Z,61.10
2022-08-07T04:51:32.111Z,60.90
2022-08-07T04:52:29.031Z,60.92
2022-08-07T04:54:01.090Z,61.29
2022-08-07T04:54:30.514Z,61.00
2022-08-07T04:58:12.971Z,61.22
2022-08-07T04:58:13.817Z,61.04
2022-08-07T04:58:24.304Z,61.40
2022-08-07T04:58:38.956Z,61.54
2022-08-07T05:00:11.170Z,61.47
2022-08-07T05:00:30.953Z,61.45
2022-08-07T05:01:29.988Z,62.03
2022-08-07T05:02:28.973Z,61.80
2022-08-07T05:03:59.921Z,62.83
2022-08-07T05:04:29.893Z,62.06
2022-08-07T05:05:53.417Z,62.33
2022-08-07T05:06:29.843Z,61.25
2022-08-07T05:07:37.106Z,61.09
2022-08-07T05:08:59.894Z,61.06
2022-08-07T05:09:45.858Z,61.05
2022-08-07T05:10:29.894Z,61.31
2022-08-07T05:11:57.243Z,61.87
2022-08-07T05:12:30.522Z,62.92
2022-08-07T05:14:53.475Z,61.53
2022-08-07T05:14:54.447Z,62.22
2022-08-07T05:15:29.727Z,63.85
2022-08-07T05:16:28.884Z,63.43
2022-08-07T05:17:52.290Z,62.83
2022-08-07T05:18:29.833Z,62.68
2022-08-07T05:19:44.088Z,63.05
2022-08-07T05:20:29.662Z,61.79
2022-08-07T05:21:59.413Z,61.73
2022-08-07T05:22:29.815Z,61.93
2022-08-07T05:23:30.918Z,62.15
2022-08-07T05:24:30.417Z,61.51
2022-08-07T05:26:11.084Z,61.90
2022-08-07T05:26:29.575Z,62.44
2022-08-07T05:28:01.979Z,61.87
2022-08-07T05:28:29.713Z,62.69
2022-08-07T05:29:48.130Z,62.99
2022-08-07T05:30:32.755Z,62.51
2022-08-07T05:31:35.119Z,61.94
2022-08-07T05:32:29.497Z,62.11
2022-08-07T05:33:29.606Z,61.35
2022-08-07T05:34:28.495Z,61.41
2022-08-07T05:35:33.221Z,61.57
2022-08-07T05:36:30.531Z,61.13
2022-08-07T05:37:28.585Z,61.75
2022-08-07T05:38:59.609Z,61.24
2022-08-07T05:40:13.549Z,61.72
2022-08-07T05:40:29.421Z,61.16
2022-08-07T05:42:00.499Z,61.02
2022-08-07T05:42:34.384Z,60.87
2022-08-07T05:43:49.890Z,61.06
2022-08-07T05:44:29.867Z,60.66
2022-08-07T05:45:46.891Z,61.78
2022-08-07T05:46:29.496Z,60.70
2022-08-07T05:47:38.328Z,61.36
2022-08-07T05:48:29.288Z,60.76
2022-08-07T05:49:40.642Z,60.70
2022-08-07T05:50:29.277Z,60.72
2022-08-07T05:51:31.744Z,60.44
2022-08-07T05:52:32.221Z,61.40
2022-08-07T05:54:12.983Z,60.96
2022-08-07T05:54:30.878Z,60.19
2022-08-07T05:56:03.162Z,60.71
2022-08-07T05:56:30.011Z,60.43
2022-08-07T05:57:30.055Z,60.58
2022-08-07T05:58:36.709Z,60.48
2022-08-07T05:59:29.138Z,59.50
2022-08-07T06:00:29.130Z,59.54
2022-08-07T06:01:35.678Z,60.40
2022-08-07T06:02:30.549Z,59.49
2022-08-07T06:03:28.222Z,59.74
2022-08-07T06:04:30.267Z,59.85
2022-08-07T06:05:56.435Z,59.74
2022-08-07T06:06:29.760Z,59.75
2022-08-07T06:08:09.163Z,59.71
2022-08-07T06:08:31.291Z,60.06
2022-08-07T06:10:03.833Z,59.90
2022-08-07T06:10:29.000Z,60.21
2022-08-07T06:11:27.999Z,59.89
2022-08-07T06:12:32.972Z,59.47
2022-08-07T06:14:10.583Z,59.81
2022-08-07T06:14:30.423Z,59.71
2022-08-07T06:15:38.513Z,59.26
2022-08-07T06:16:29.255Z,59.33
2022-08-07T06:17:30.658Z,60.06
2022-08-07T06:18:28.022Z,60.31
2022-08-07T06:19:52.211Z,59.13
2022-08-07T06:20:49.963Z,59.43
2022-08-07T06:22:14.941Z,59.61
2022-08-07T06:22:28.895Z,59.39
2022-08-07T06:24:37.099Z,59.46
2022-08-07T06:24:37.456Z,59.56
2022-08-07T06:25:28.792Z,59.35
2022-08-07T06:26:28.821Z,59.34
2022-08-07T06:28:00.305Z,59.63
2022-08-07T06:28:28.932Z,59.58
2022-08-07T06:29:27.742Z,59.42
2022-08-07T06:30:35.990Z,59.30
2022-08-07T06:31:47.238Z,59.38
2022-08-07T06:32:29.376Z,59.23
2022-08-07T06:33:29.538Z,58.85
2022-08-07T06:34:28.061Z,59.46
2022-08-07T06:35:30.580Z,59.40
2022-08-07T06:36:35.527Z,61.31
2022-08-07T06:37:28.646Z,60.42
2022-08-07T06:38:28.671Z,58.72
2022-08-07T06:40:13.462Z,58.93
2022-08-07T06:40:34.316Z,59.02
2022-08-07T06:42:00.658Z,59.02
2022-08-07T06:42:34.794Z,58.94
2022-08-07T06:43:39.608Z,59.29
2022-08-07T06:44:31.062Z,59.63
2022-08-07T06:45:28.541Z,59.27
2022-08-07T06:46:35.095Z,59.35
2022-08-07T06:47:28.728Z,59.20
2022-08-07T06:48:28.500Z,59.18
2022-08-07T06:49:28.007Z,59.31
2022-08-07T06:50:27.494Z,58.67
2022-08-07T06:51:33.180Z,59.44
2022-08-07T06:52:32.095Z,59.32
2022-08-07T06:55:30.084Z,58.99
2022-08-07T06:55:31.422Z,59.88
2022-08-07T06:55:47.933Z,60.32
2022-08-07T06:56:28.386Z,59.05
2022-08-07T06:57:39.322Z,59.23
2022-08-07T06:58:28.790Z,58.73
2022-08-07T07:00:13.247Z,59.19
2022-08-07T07:00:28.332Z,58.85
2022-08-07T07:01:32.973Z,59.28
2022-08-07T07:02:53.555Z,59.16
2022-08-07T07:03:47.936Z,59.75
2022-08-07T07:04:33.259Z,58.77
2022-08-07T07:06:03.615Z,58.56
2022-08-07T07:06:28.277Z,58.50
2022-08-07T07:08:00.331Z,60.05
2022-08-07T07:08:28.447Z,58.20
2022-08-07T07:09:30.918Z,58.69
2022-08-07T07:10:27.208Z,60.01
2022-08-07T07:12:08.835Z,58.43
2022-08-07T07:12:31.451Z,58.04
2022-08-07T07:13:56.613Z,57.84
2022-08-07T07:14:28.146Z,57.91
2022-08-07T07:15:32.699Z,58.18
2022-08-07T07:16:30.433Z,59.07
2022-08-07T07:17:38.925Z,58.87
2022-08-07T07:18:37.676Z,58.00
2022-08-07T07:19:57.281Z,57.82
2022-08-07T07:20:28.079Z,57.80
2022-08-07T07:21:40.432Z,59.83
2022-08-07T07:22:36.857Z,58.28
2022-08-07T07:24:11.295Z,58.46
2022-08-07T07:24:28.031Z,58.98
2022-08-07T07:26:34.379Z,57.75
2022-08-07T07:26:34.959Z,58.19
2022-08-07T07:27:35.821Z,58.29
2022-08-07T07:28:29.741Z,59.24
2022-08-07T07:29:39.918Z,58.30
2022-08-07T07:30:38.593Z,58.13
2022-08-07T07:31:30.262Z,58.04
2022-08-07T07:32:27.908Z,57.99
2022-08-07T07:33:26.999Z,58.05
2022-08-07T07:34:31.169Z,57.84
2022-08-07T07:35:27.871Z,58.08
2022-08-07T07:36:32.706Z,58.14
2022-08-07T07:37:47.256Z,58.12
2022-08-07T07:38:27.830Z,58.64
2022-08-07T07:39:26.852Z,58.92
2022-08-07T07:40:27.791Z,58.05
2022-08-07T07:41:30.879Z,57.43
2022-08-07T07:42:32.439Z,57.12
2022-08-07T07:43:27.748Z,57.06
2022-08-07T07:44:27.732Z,56.96
2022-08-07T07:46:37.072Z,56.97
2022-08-07T07:46:40.373Z,56.76
2022-08-07T07:47:27.746Z,57.01
2022-08-07T07:48:35.941Z,57.29
2022-08-07T07:50:35.669Z,57.72
2022-08-07T07:50:35.973Z,57.87
2022-08-07T07:51:27.632Z,57.71
2022-08-07T07:52:27.033Z,57.84
2022-08-07T07:53:26.613Z,57.74
2022-08-07T07:54:26.775Z,57.59
2022-08-07T07:55:26.593Z,57.18
2022-08-07T07:56:30.359Z,56.87
2022-08-07T07:57:51.518Z,57.12
2022-08-07T07:58:28.630Z,57.70
2022-08-07T07:59:52.150Z,57.58
2022-08-07T08:00:29.583Z,57.36
2022-08-07T08:02:01.775Z,57.63
2022-08-07T08:02:35.381Z,58.26
2022-08-07T08:04:11.087Z,57.28
2022-08-07T08:04:27.654Z,56.99
2022-08-07T08:05:28.610Z,56.99
2022-08-07T08:06:27.458Z,57.18
2022-08-07T08:07:59.574Z,57.14
2022-08-07T08:08:34.763Z,57.21
2022-08-07T08:09:29.107Z,57.08
2022-08-07T08:10:35.671Z,57.14
2022-08-07T08:11:59.165Z,56.80
2022-08-07T08:12:52.088Z,56.71
2022-08-07T08:13:36.751Z,56.87
2022-08-07T08:14:27.329Z,57.33
2022-08-07T08:15:26.434Z,57.76
2022-08-07T08:16:26.298Z,57.02
2022-08-07T08:17:57.733Z,57.12
2022-08-07T08:18:27.287Z,57.13
2022-08-07T08:20:18.657Z,56.75
2022-08-07T08:20:31.976Z,56.67
2022-08-07T08:21:55.889Z,56.81
2022-08-07T08:22:32.800Z,57.45
2022-08-07T08:23:27.902Z,56.83
2022-08-07T08:24:45.041Z,57.29
2022-08-07T08:25:42.924Z,56.29
2022-08-07T08:26:27.156Z,56.31
2022-08-07T08:27:26.346Z,56.66
2022-08-07T08:28:37.933Z,56.43
2022-08-07T08:29:27.137Z,56.76
2022-08-07T08:30:26.103Z,56.88
2022-08-07T08:31:59.096Z,56.74
2022-08-07T08:32:38.243Z,56.34
2022-08-07T08:33:28.827Z,56.70
2022-08-07T08:34:29.115Z,57.29
2022-08-07T08:35:28.843Z,56.72
2022-08-07T08:36:29.846Z,56.10
2022-08-07T08:37:59.384Z,56.37
2022-08-07T08:38:29.983Z,56.90
2022-08-07T08:39:39.809Z,56.82
2022-08-07T08:40:28.571Z,56.26
2022-08-07T08:41:25.957Z,56.52
2022-08-07T08:42:26.948Z,55.74
2022-08-07T08:43:42.453Z,56.26
2022-08-07T08:44:29.566Z,55.54
2022-08-07T08:45:26.652Z,55.55
2022-08-07T08:46:26.910Z,55.95
2022-08-07T08:47:25.998Z,56.02
2022-08-07T08:48:32.401Z,56.00
2022-08-07T08:49:33.129Z,57.12
2022-08-07T08:50:35.323Z,55.49
2022-08-07T08:51:49.890Z,55.58
2022-08-07T08:52:30.394Z,54.26
2022-08-07T08:53:29.425Z,54.16
2022-08-07T08:54:25.813Z,54.48
2022-08-07T08:55:54.351Z,54.26
2022-08-07T08:56:26.751Z,55.04
2022-08-07T08:57:26.906Z,54.37
2022-08-07T08:58:29.012Z,54.49
2022-08-07T08:59:25.701Z,54.26
2022-08-07T09:00:28.612Z,54.31
2022-08-07T09:01:29.939Z,54.39
2022-08-07T09:02:35.266Z,54.25
2022-08-07T09:03:47.930Z,53.61
2022-08-07T09:04:28.628Z,53.19
2022-08-07T09:05:37.471Z,53.60
2022-08-07T09:06:27.811Z,53.33
2022-08-07T09:07:25.612Z,53.28
2022-08-07T09:08:28.514Z,53.01
2022-08-07T09:09:30.167Z,52.84
2022-08-07T09:10:26.613Z,53.20
2022-08-07T09:11:51.179Z,53.14
2022-08-07T09:12:31.838Z,53.27
2022-08-07T09:13:37.067Z,52.76
2022-08-07T09:14:29.542Z,53.11
2022-08-07T09:16:21.617Z,51.89
2022-08-07T09:16:30.698Z,52.39
2022-08-07T09:17:25.476Z,52.59
2022-08-07T09:18:26.458Z,52.96
2022-08-07T09:19:51.168Z,52.72
2022-08-07T09:20:35.754Z,53.22
2022-08-07T09:21:34.023Z,53.44
2022-08-07T09:24:30.994Z,52.88
2022-08-07T09:24:33.075Z,51.50
2022-08-07T09:24:34.137Z,52.36
2022-08-07T09:25:27.419Z,52.12
2022-08-07T09:26:25.375Z,52.60
2022-08-07T09:27:28.744Z,52.29
2022-08-07T09:30:03.471Z,52.77
2022-08-07T09:30:06.430Z,52.21
2022-08-07T09:30:28.101Z,52.60
2022-08-07T09:31:25.286Z,52.47
2022-08-07T09:32:26.449Z,52.23
2022-08-07T09:33:52.937Z,51.77
2022-08-07T09:34:27.307Z,51.32
2022-08-07T09:36:05.384Z,51.16
2022-08-07T09:36:27.092Z,51.64
2022-08-07T09:37:48.519Z,51.94
2022-08-07T09:38:26.226Z,52.49
2022-08-07T09:39:53.706Z,52.15
2022-08-07T09:40:26.225Z,53.14
2022-08-07T09:41:25.150Z,52.47
2022-08-07T09:42:25.327Z,52.83
2022-08-07T09:44:03.470Z,52.67
2022-08-07T09:44:32.694Z,53.27
2022-08-07T09:47:27.562Z,53.45
2022-08-07T09:47:49.765Z,53.09
2022-08-07T09:47:57.812Z,52.19
2022-08-07T09:48:30.175Z,52.39
2022-08-07T09:50:02.684Z,52.69
2022-08-07T09:50:26.549Z,53.05
2022-08-07T09:52:10.806Z,52.88
2022-08-07T09:52:34.257Z,53.23
2022-08-07T09:53:25.997Z,53.54
2022-08-07T09:54:27.230Z,53.28
2022-08-07T09:55:29.654Z,52.03
2022-08-07T09:56:34.018Z,52.71
2022-08-07T09:57:26.042Z,52.03
2022-08-07T09:58:31.915Z,52.15
2022-08-07T09:59:35.664Z,53.13
2022-08-07T10:00:29.920Z,52.23
2022-08-07T10:01:51.647Z,51.71
2022-08-07T10:02:29.778Z,51.77
2022-08-07T10:04:05.922Z,53.30
2022-08-07T10:04:32.470Z,52.30
2022-08-07T10:05:58.067Z,52.15
2022-08-07T10:06:25.873Z,51.94
2022-08-07T10:07:26.366Z,52.61
2022-08-07T10:08:25.823Z,51.15
2022-08-07T10:09:34.556Z,51.21
2022-08-07T10:10:28.327Z,50.85
2022-08-07T10:12:00.488Z,52.05
2022-08-07T10:12:26.117Z,52.00
2022-08-07T10:13:55.192Z,51.35
2022-08-07T10:14:30.313Z,51.02
2022-08-07T10:15:25.696Z,51.33
2022-08-07T10:16:24.813Z,52.37
2022-08-07T10:17:24.699Z,51.51
2022-08-07T10:18:27.187Z,51.41
2022-08-07T10:19:24.645Z,51.55
2022-08-07T10:20:31.721Z,51.82
2022-08-07T10:22:14.363Z,51.72
2022-08-07T10:22:33.731Z,50.75
2022-08-07T10:24:06.584Z,50.98
2022-08-07T10:24:25.587Z,51.05
2022-08-07T10:25:24.574Z,50.53
2022-08-07T10:26:25.575Z,50.17
2022-08-07T10:27:24.666Z,50.62
2022-08-07T10:28:25.541Z,50.58
2022-08-07T10:29:24.603Z,51.21
2022-08-07T10:30:26.409Z,50.81
2022-08-07T10:31:24.635Z,52.23
2022-08-07T10:32:50.942Z,52.59
2022-08-07T10:34:15.542Z,51.14
2022-08-07T10:34:31.723Z,51.84
2022-08-07T10:35:25.898Z,51.08
2022-08-07T10:36:29.469Z,50.55
2022-08-07T10:37:48.144Z,50.24
2022-08-07T10:38:36.108Z,50.35
2022-08-07T10:39:25.700Z,50.94
2022-08-07T10:40:30.091Z,50.98
2022-08-07T10:41:52.339Z,50.72
2022-08-07T10:42:31.258Z,50.84
2022-08-07T10:43:34.381Z,51.51
2022-08-07T10:44:28.418Z,50.45
2022-08-07T10:45:45.297Z,50.58
2022-08-07T10:46:25.482Z,51.10
2022-08-07T10:47:26.865Z,50.78
2022-08-07T10:48:25.258Z,51.31
2022-08-07T10:49:49.671Z,51.11
2022-08-07T10:50:25.952Z,50.77
2022-08-07T10:51:39.518Z,51.77
2022-08-07T10:52:31.795Z,52.34
2022-08-07T10:53:25.189Z,51.72
2022-08-07T10:54:24.239Z,51.38
2022-08-07T10:55:37.270Z,52.54
2022-08-07T10:56:31.588Z,51.84
2022-08-07T10:57:34.434Z,52.01
2022-08-07T10:58:33.170Z,51.12
2022-08-07T10:59:25.110Z,50.58
2022-08-07T11:00:36.489Z,50.50
2022-08-07T11:01:25.125Z,51.22
2022-08-07T11:02:33.526Z,50.71
2022-08-07T11:03:28.085Z,50.38
2022-08-07T11:04:32.353Z,50.50
2022-08-07T11:05:25.037Z,50.37
2022-08-07T11:06:26.885Z,50.62
2022-08-07T11:07:58.305Z,51.00
2022-08-07T11:08:29.112Z,50.43
2022-08-07T11:10:07.221Z,50.03
2022-08-07T11:10:27.382Z,50.60
2022-08-07T11:11:23.961Z,51.33
2022-08-07T11:12:32.071Z,50.76
2022-08-07T11:14:41.994Z,50.92
2022-08-07T11:15:00.783Z,50.10
2022-08-07T11:15:31.453Z,51.77
2022-08-07T11:16:29.790Z,50.51
2022-08-07T11:17:43.212Z,51.03
2022-08-07T11:18:24.859Z,50.54
2022-08-07T11:19:46.416Z,49.73
2022-08-07T11:20:24.548Z,50.60
2022-08-07T11:21:24.021Z,49.67
2022-08-07T11:22:32.368Z,49.79
2022-08-07T11:23:30.381Z,50.18
2022-08-07T11:24:24.785Z,51.29
2022-08-07T11:25:25.875Z,50.52
2022-08-07T11:26:23.755Z,50.82
2022-08-07T11:28:00.761Z,50.01
2022-08-07T11:28:25.031Z,50.37
2022-08-07T11:29:41.972Z,51.23
2022-08-07T11:30:39.183Z,50.67
2022-08-07T11:31:24.691Z,50.23
2022-08-07T11:32:25.402Z,50.14
2022-08-07T11:33:53.627Z,50.95
2022-08-07T11:34:24.669Z,52.28
2022-08-07T11:35:25.334Z,50.71
2022-08-07T11:36:25.477Z,50.69
2022-08-07T11:37:24.607Z,50.60
2022-08-07T11:38:26.114Z,50.59
2022-08-07T11:39:23.628Z,50.05
2022-08-07T11:40:23.749Z,50.29
2022-08-07T11:41:30.963Z,50.35
2022-08-07T11:42:29.443Z,50.56
2022-08-07T11:43:41.410Z,51.16
2022-08-07T11:44:24.518Z,50.65
2022-08-07T11:45:23.632Z,49.85
2022-08-07T11:46:23.660Z,49.78
2022-08-07T11:47:23.503Z,49.83
2022-08-07T11:48:29.768Z,49.66
2022-08-07T11:49:50.624Z,50.40
2022-08-07T11:50:31.558Z,51.62
2022-08-07T11:51:41.565Z,50.60
2022-08-07T11:52:29.316Z,50.05
2022-08-07T11:53:25.251Z,50.15
2022-08-07T11:54:25.522Z,50.23
2022-08-07T11:56:09.337Z,49.60
2022-08-07T11:56:27.206Z,49.86
2022-08-07T11:57:25.935Z,49.65
2022-08-07T11:58:33.476Z,49.75
2022-08-07T12:00:11.641Z,50.57
2022-08-07T12:00:28.297Z,50.02
2022-08-07T12:01:23.304Z,51.51
2022-08-07T12:02:30.741Z,51.43
2022-08-07T12:03:41.377Z,50.98
2022-08-07T12:04:24.316Z,50.58
2022-08-07T12:05:28.885Z,50.32
2022-08-07T12:06:37.773Z,51.70
2022-08-07T12:07:27.435Z,49.71
2022-08-07T12:08:31.806Z,50.65
2022-08-07T12:09:24.204Z,49.34
2022-08-07T12:10:23.359Z,50.02
2022-08-07T12:11:23.168Z,50.06
2022-08-07T12:12:23.264Z,50.05
2022-08-07T12:13:35.524Z,50.62
2022-08-07T12:14:24.113Z,49.48
2022-08-07T12:15:35.758Z,49.52
2022-08-07T12:16:30.034Z,50.99
2022-08-07T12:17:24.087Z,51.17
2022-08-07T12:18:29.673Z,51.88
2022-08-07T12:19:24.049Z,50.69
2022-08-07T12:20:30.625Z,50.02
2022-08-07T12:22:36.026Z,49.63
2022-08-07T12:22:37.501Z,49.59
2022-08-07T12:24:06.304Z,49.41
2022-08-07T12:24:37.051Z,50.83
2022-08-07T12:26:05.339Z,49.82
2022-08-07T12:26:29.854Z,50.01
2022-08-07T12:27:28.025Z,50.26
2022-08-07T12:28:24.152Z,50.66
2022-08-07T12:29:37.664Z,51.24
2022-08-07T12:30:23.897Z,50.56
2022-08-07T12:31:23.567Z,50.06
2022-08-07T12:32:22.898Z,50.03
2022-08-07T12:33:28.318Z,50.96
2022-08-07T12:34:25.979Z,52.42
2022-08-07T12:35:24.065Z,49.89
2022-08-07T12:36:32.871Z,49.86
2022-08-07T12:37:23.885Z,50.66
2022-08-07T12:38:29.285Z,49.83
2022-08-07T12:39:42.332Z,52.00
2022-08-07T12:40:46.874Z,50.72
2022-08-07T12:41:23.858Z,51.53
2022-08-07T12:42:27.589Z,51.05
2022-08-07T12:44:01.592Z,50.99
2022-08-07T12:44:23.717Z,51.31
2022-08-07T12:45:22.708Z,50.14
2022-08-07T12:46:31.967Z,51.62
2022-08-07T12:47:26.987Z,52.35
2022-08-07T12:48:27.673Z,50.42
2022-08-07T12:49:39.479Z,50.13
2022-08-07T12:50:39.564Z,49.67
2022-08-07T12:51:23.622Z,49.76
2022-08-07T12:52:27.106Z,50.47
2022-08-07T12:53:22.614Z,50.90
2022-08-07T12:54:37.132Z,49.97